createdAt,value
2022-12-03T00:00:59.268Z,24.15
2022-12-03T00:03:27.191Z,25.17
2022-12-03T00:05:56.238Z,24.63
2022-12-03T00:08:24.101Z,27.58
2022-12-03T00:10:51.860Z,25.55
2022-12-03T00:13:21.063Z,24.58
2022-12-03T00:15:48.981Z,23.17
2022-12-03T00:18:16.919Z,25.38
2022-12-03T00:20:44.741Z,29.35
2022-12-03T00:23:12.515Z,29.95
2022-12-03T00:25:40.329Z,24.52
2022-12-03T00:28:08.073Z,22.55
2022-12-03T00:30:37.329Z,23.25
2022-12-03T00:35:32.813Z,32.25
2022-12-03T00:38:00.646Z,25.13
2022-12-03T00:40:29.232Z,25.75
2022-12-03T00:42:57.064Z,25.83
2022-12-03T00:45:24.872Z,25.23
2022-12-03T00:47:54.068Z,24.00
2022-12-03T00:50:21.888Z,26.90
2022-12-03T00:52:49.876Z,25.08
2022-12-03T00:55:18.143Z,25.85
2022-12-03T00:57:45.966Z,24.45
2022-12-03T01:00:15.294Z,26.60
2022-12-03T01:05:12.138Z,28.48
2022-12-03T01:10:08.837Z,24.95
2022-12-03T01:12:36.647Z,21.63
2022-12-03T01:15:05.183Z,26.27
2022-12-03T01:17:33.011Z,25.35
2022-12-03T01:20:02.255Z,23.90
2022-12-03T01:22:31.408Z,25.23
2022-12-03T01:24:59.142Z,26.05
2022-12-03T01:27:26.978Z,24.70
2022-12-03T01:29:54.699Z,23.05
2022-12-03T01:32:21.484Z,23.42
2022-12-03T01:34:51.601Z,24.83
2022-12-03T01:37:20.653Z,26.42
2022-12-03T01:39:50.085Z,25.23
2022-12-03T01:44:47.350Z,23.25
2022-12-03T01:47:17.749Z,29.05
2022-12-03T01:49:49.068Z,25.17
2022-12-03T01:52:19.507Z,29.45
2022-12-03T01:54:52.045Z,27.65
2022-12-03T01:57:24.037Z,26.20
2022-12-03T01:59:53.350Z,25.10
2022-12-03T02:04:51.233Z,26.08
2022-12-03T02:07:24.868Z,25.55
2022-12-03T02:09:55.405Z,25.27
2022-12-03T02:12:27.764Z,30.65
2022-12-03T02:14:55.972Z,25.63
2022-12-03T02:17:24.008Z,28.63
2022-12-03T02:19:52.422Z,23.48
2022-12-03T02:22:34.195Z,23.73
2022-12-03T02:25:11.842Z,23.73
2022-12-03T02:27:39.808Z,26.27
2022-12-03T02:30:09.837Z,28.20
2022-12-03T02:32:38.255Z,28.17
2022-12-03T02:35:06.644Z,24.37
2022-12-03T02:37:37.286Z,26.47
2022-12-03T02:40:11.515Z,25.75
2022-12-03T02:42:39.881Z,23.75
2022-12-03T02:45:11.920Z,24.40
2022-12-03T02:47:42.687Z,24.65
2022-12-03T02:50:13.020Z,25.08
2022-12-03T02:52:41.160Z,28.55
2022-12-03T02:55:11.000Z,25.23
2022-12-03T02:57:39.986Z,23.08
2022-12-03T03:00:11.285Z,24.05
2022-12-03T03:02:41.028Z,26.17
2022-12-03T03:05:11.517Z,22.17
2022-12-03T03:07:40.755Z,23.20
2022-12-03T03:12:40.213Z,23.63
2022-12-03T03:15:10.375Z,23.40
2022-12-03T03:17:38.655Z,22.17
2022-12-03T03:20:09.155Z,24.77
2022-12-03T03:22:40.111Z,23.25
2022-12-03T03:25:11.735Z,24.05
2022-12-03T03:27:41.055Z,24.13
2022-12-03T03:32:38.068Z,21.50
2022-12-03T03:35:07.260Z,20.33
2022-12-03T03:37:35.153Z,22.10
2022-12-03T03:40:03.344Z,20.45
2022-12-03T03:42:32.584Z,21.35
2022-12-03T03:45:00.687Z,26.13
2022-12-03T03:47:28.848Z,19.85
2022-12-03T03:49:56.803Z,18.15
2022-12-03T03:52:24.757Z,23.65
2022-12-03T03:54:52.845Z,22.75
2022-12-03T03:57:20.924Z,22.48
2022-12-03T03:59:50.078Z,24.83
2022-12-03T04:02:20.668Z,25.25
2022-12-03T04:04:48.925Z,21.83
2022-12-03T04:07:16.991Z,18.55
2022-12-03T04:09:45.190Z,21.10
2022-12-03T04:12:31.103Z,21.73
2022-12-03T04:15:00.234Z,20.83
2022-12-03T04:17:28.146Z,23.15
2022-12-03T04:19:55.978Z,24.33
2022-12-03T04:22:41.141Z,21.90
2022-12-03T04:25:28.312Z,21.83
2022-12-03T04:28:13.804Z,23.42
2022-12-03T04:30:42.930Z,22.70
2022-12-03T04:33:28.141Z,20.42
2022-12-03T04:35:55.967Z,21.13
2022-12-03T04:38:23.869Z,24.23
2022-12-03T04:41:04.517Z,23.23
2022-12-03T04:43:34.160Z,22.20
2022-12-03T04:46:03.346Z,23.10
2022-12-03T04:48:31.216Z,22.95
2022-12-03T04:50:58.995Z,25.80
2022-12-03T04:53:26.881Z,19.10
2022-12-03T04:55:54.640Z,26.38
2022-12-03T04:58:22.412Z,23.98
2022-12-03T05:00:50.214Z,22.15
2022-12-03T05:03:19.351Z,19.83
2022-12-03T05:05:47.384Z,21.85
2022-12-03T05:08:15.218Z,22.33
2022-12-03T05:10:42.998Z,20.90
2022-12-03T05:13:10.720Z,21.83
2022-12-03T05:15:38.528Z,20.90
2022-12-03T05:18:06.316Z,23.05
2022-12-03T05:20:49.825Z,18.48
2022-12-03T05:23:20.847Z,21.90
2022-12-03T05:25:48.704Z,20.88
2022-12-03T05:28:16.458Z,22.10
2022-12-03T05:30:44.334Z,22.30
2022-12-03T05:33:12.133Z,20.90
2022-12-03T05:35:41.208Z,23.98
2022-12-03T05:38:09.033Z,27.33
2022-12-03T05:40:37.862Z,22.98
2022-12-03T05:43:04.879Z,21.58
2022-12-03T05:45:35.017Z,22.40
2022-12-03T05:48:04.687Z,22.70
2022-12-03T05:50:34.090Z,22.27
2022-12-03T05:53:17.507Z,21.63
2022-12-03T05:55:45.288Z,21.98
2022-12-03T05:58:13.015Z,21.63
2022-12-03T06:00:42.989Z,23.27
2022-12-03T06:03:11.478Z,27.17
2022-12-03T06:05:39.413Z,20.57
2022-12-03T06:08:07.271Z,24.13
2022-12-03T06:10:36.454Z,23.08
2022-12-03T06:13:04.215Z,22.83
2022-12-03T06:15:31.994Z,23.92
2022-12-03T06:17:59.790Z,27.33
2022-12-03T06:20:27.546Z,25.15
2022-12-03T06:22:55.291Z,28.13
2022-12-03T06:25:23.049Z,22.75
2022-12-03T06:27:52.152Z,24.67
2022-12-03T06:30:19.966Z,19.58
2022-12-03T06:32:47.715Z,22.80
2022-12-03T06:35:15.656Z,22.77
2022-12-03T06:37:43.394Z,26.73
2022-12-03T06:40:12.184Z,23.55
2022-12-03T06:42:39.997Z,26.27
2022-12-03T06:45:09.755Z,23.45
2022-12-03T06:47:37.867Z,22.25
2022-12-03T06:50:07.264Z,24.38
2022-12-03T06:55:02.954Z,24.42
2022-12-03T06:57:30.721Z,26.27
2022-12-03T06:59:58.536Z,24.75
2022-12-03T07:02:27.791Z,22.98
2022-12-03T07:07:23.677Z,24.20
2022-12-03T07:09:51.433Z,25.73
2022-12-03T07:12:19.191Z,25.88
2022-12-03T07:14:47.007Z,26.20
2022-12-03T07:17:14.764Z,22.70
2022-12-03T07:19:44.761Z,29.73
2022-12-03T07:22:12.533Z,24.55
2022-12-03T07:24:40.260Z,26.02
2022-12-03T07:27:08.025Z,27.73
2022-12-03T07:29:35.785Z,23.77
2022-12-03T07:32:03.554Z,26.83
2022-12-03T07:34:31.339Z,28.23
2022-12-03T07:37:00.407Z,28.25
2022-12-03T07:39:28.124Z,25.88
2022-12-03T07:41:55.934Z,25.60
2022-12-03T07:44:23.708Z,30.25
2022-12-03T07:46:51.589Z,30.88
2022-12-03T07:49:19.434Z,28.27
2022-12-03T07:51:53.688Z,29.33
2022-12-03T07:54:23.138Z,23.65
2022-12-03T07:56:52.692Z,27.77
2022-12-03T07:59:22.509Z,24.70
2022-12-03T08:01:50.273Z,28.73
2022-12-03T08:04:19.108Z,28.40
2022-12-03T08:06:46.910Z,29.67
2022-12-03T08:09:16.349Z,26.98
2022-12-03T08:11:48.434Z,24.05
2022-12-03T08:14:19.069Z,29.38
2022-12-03T08:16:48.488Z,31.10
2022-12-03T08:19:18.046Z,30.75
2022-12-03T08:21:45.954Z,31.67
2022-12-03T08:24:16.016Z,25.75
2022-12-03T08:26:46.348Z,25.52
2022-12-03T08:29:16.838Z,33.50
2022-12-03T08:31:49.286Z,27.92
2022-12-03T08:34:19.969Z,28.02
2022-12-03T08:36:48.672Z,29.45
2022-12-03T08:39:30.297Z,28.70
2022-12-03T08:42:21.529Z,27.80
2022-12-03T08:44:49.341Z,26.95
2022-12-03T08:47:21.164Z,25.83
2022-12-03T08:49:58.079Z,27.77
2022-12-03T08:52:32.595Z,29.92
2022-12-03T08:55:03.808Z,27.65
2022-12-03T08:57:35.534Z,28.27
2022-12-03T09:00:17.838Z,28.70
2022-12-03T09:02:48.709Z,26.55
2022-12-03T09:05:19.929Z,27.13
2022-12-03T09:07:48.049Z,30.20
2022-12-03T09:10:16.316Z,29.30
2022-12-03T09:12:45.452Z,29.13
2022-12-03T09:15:13.212Z,23.50
2022-12-03T09:17:41.000Z,23.40
2022-12-03T09:20:09.780Z,24.27
2022-12-03T09:22:37.597Z,26.42
2022-12-03T09:25:06.014Z,25.83
2022-12-03T09:27:34.560Z,23.73
2022-12-03T09:30:03.814Z,23.35
2022-12-03T09:32:31.728Z,29.05
2022-12-03T09:34:59.596Z,24.38
2022-12-03T09:37:27.342Z,22.77
2022-12-03T09:39:55.102Z,21.75
2022-12-03T09:42:23.372Z,20.05
2022-12-03T09:44:51.349Z,20.50
2022-12-03T09:47:21.260Z,20.63
2022-12-03T09:49:49.192Z,22.00
2022-12-03T09:52:23.435Z,27.75
2022-12-03T09:54:53.632Z,24.90
2022-12-03T09:57:21.873Z,26.65
2022-12-03T09:59:49.632Z,22.25
2022-12-03T10:02:23.678Z,22.85
2022-12-03T10:04:52.026Z,25.35
2022-12-03T10:07:20.550Z,31.23
2022-12-03T10:09:48.421Z,26.42
2022-12-03T10:12:22.029Z,24.48
2022-12-03T10:14:49.904Z,23.95
2022-12-03T10:17:18.163Z,23.73
2022-12-03T10:19:47.364Z,21.55
2022-12-03T10:22:15.146Z,21.73
2022-12-03T10:24:44.762Z,21.33
2022-12-03T10:27:23.460Z,20.55
2022-12-03T10:29:56.132Z,17.38
2022-12-03T10:32:26.647Z,23.30
2022-12-03T10:35:09.400Z,19.80
2022-12-03T10:37:37.381Z,18.85
2022-12-03T10:40:08.380Z,16.58
2022-12-03T10:42:38.750Z,23.02
2022-12-03T10:45:15.209Z,18.67
2022-12-03T10:47:43.679Z,18.15
2022-12-03T10:50:19.304Z,20.45
2022-12-03T10:52:48.143Z,16.75
2022-12-03T10:55:17.074Z,19.33
2022-12-03T10:57:46.951Z,16.83
2022-12-03T11:02:45.784Z,19.35
2022-12-03T11:05:15.338Z,18.73
2022-12-03T11:07:45.147Z,20.58
2022-12-03T11:10:17.608Z,14.52
2022-12-03T11:13:26.754Z,18.25
2022-12-03T11:19:02.778Z,16.10
2022-12-03T11:21:31.089Z,19.67
2022-12-03T11:24:21.797Z,16.85
2022-12-03T11:27:20.613Z,17.33
2022-12-03T11:29:59.799Z,19.80
2022-12-03T11:33:00.924Z,17.45
2022-12-03T11:35:35.830Z,19.98
2022-12-03T11:38:36.767Z,19.75
2022-12-03T11:41:10.728Z,19.42
2022-12-03T11:44:02.807Z,21.88
2022-12-03T11:46:40.235Z,18.42
2022-12-03T11:49:24.374Z,19.67
2022-12-03T11:51:52.403Z,17.13
2022-12-03T11:54:23.661Z,18.15
2022-12-03T11:56:54.041Z,20.20
2022-12-03T11:59:22.512Z,19.13
2022-12-03T12:01:50.219Z,17.27
2022-12-03T12:04:34.552Z,18.40
2022-12-03T12:07:03.229Z,19.20
2022-12-03T12:09:53.481Z,18.80
2022-12-03T12:12:29.810Z,18.73
2022-12-03T12:14:58.235Z,19.00
2022-12-03T12:17:36.688Z,21.60
2022-12-03T12:20:25.527Z,19.80
2022-12-03T12:22:54.109Z,21.88
2022-12-03T12:25:40.374Z,20.10
2022-12-03T12:28:09.903Z,18.17
2022-12-03T12:30:37.868Z,20.27
2022-12-03T12:33:15.110Z,19.85
2022-12-03T12:35:43.024Z,21.80
2022-12-03T12:38:17.029Z,22.77
2022-12-03T12:40:46.832Z,20.50
2022-12-03T12:43:24.306Z,21.63
2022-12-03T12:45:54.532Z,23.65
2022-12-03T12:48:25.400Z,20.40
2022-12-03T12:50:59.273Z,23.88
2022-12-03T12:53:28.655Z,25.23
2022-12-03T13:00:58.436Z,21.90
2022-12-03T13:03:28.936Z,25.27
2022-12-03T13:05:58.198Z,26.20
2022-12-03T13:08:28.448Z,25.63
2022-12-03T13:10:57.398Z,27.67
2022-12-03T13:13:41.641Z,22.08
2022-12-03T13:16:14.205Z,34.05
2022-12-03T13:18:45.414Z,29.25
2022-12-03T13:21:37.454Z,24.77
2022-12-03T13:24:27.590Z,26.88
2022-12-03T13:26:55.698Z,27.45
2022-12-03T13:29:26.525Z,25.52
2022-12-03T13:31:56.381Z,29.83
2022-12-03T13:34:25.968Z,22.92
2022-12-03T13:36:57.942Z,25.48
2022-12-03T13:39:31.663Z,25.75
2022-12-03T13:42:19.382Z,23.75
2022-12-03T13:44:50.263Z,34.20
2022-12-03T13:47:21.669Z,21.52
2022-12-03T13:49:53.008Z,22.67
2022-12-03T13:52:24.967Z,22.17
2022-12-03T13:54:54.436Z,23.65
2022-12-03T13:57:22.975Z,25.85
2022-12-03T13:59:52.718Z,24.08
2022-12-03T14:02:20.811Z,24.58
2022-12-03T14:04:48.624Z,24.63
2022-12-03T14:07:16.399Z,25.23
2022-12-03T14:09:44.123Z,25.88
2022-12-03T14:12:27.127Z,23.17
2022-12-03T14:14:57.190Z,28.30
2022-12-03T14:17:25.019Z,25.50
2022-12-03T14:19:53.200Z,29.88
2022-12-03T14:22:25.173Z,26.35
2022-12-03T14:24:53.194Z,24.45
2022-12-03T14:27:21.510Z,23.42
2022-12-03T14:29:49.487Z,29.90
2022-12-03T14:32:18.755Z,51.88
2022-12-03T14:37:14.294Z,26.35
2022-12-03T14:39:46.693Z,28.23
2022-12-03T14:42:13.484Z,23.15
2022-12-03T14:44:41.381Z,25.30
2022-12-03T14:47:09.643Z,28.25
2022-12-03T14:49:39.053Z,25.02
2022-12-03T14:54:41.987Z,24.35
2022-12-03T14:57:11.353Z,26.80
2022-12-03T14:59:39.359Z,25.70
2022-12-03T15:02:07.418Z,22.40
2022-12-03T15:04:38.106Z,29.10
2022-12-03T15:07:07.043Z,26.38
2022-12-03T15:09:35.355Z,29.05
2022-12-03T15:12:03.907Z,29.13
2022-12-03T15:14:31.733Z,25.27
2022-12-03T15:16:59.762Z,24.27
2022-12-03T15:19:27.643Z,21.90
2022-12-03T15:21:56.733Z,25.05
2022-12-03T15:24:24.519Z,25.40
2022-12-03T15:26:53.517Z,26.48
2022-12-03T15:29:21.908Z,23.85
2022-12-03T15:31:49.761Z,27.17
2022-12-03T15:34:22.515Z,23.67
2022-12-03T15:36:50.949Z,25.85
2022-12-03T15:39:20.076Z,22.58
2022-12-03T15:41:47.990Z,32.22
2022-12-03T15:44:15.812Z,24.98
2022-12-03T15:46:43.667Z,26.65
2022-12-03T15:49:11.569Z,27.52
2022-12-03T15:51:39.393Z,26.10
2022-12-03T15:54:07.241Z,24.52
2022-12-03T15:56:37.585Z,26.27
2022-12-03T15:59:05.678Z,26.02
2022-12-03T16:01:33.789Z,25.13
2022-12-03T16:04:01.821Z,22.13
2022-12-03T16:06:29.763Z,26.27
2022-12-03T16:08:57.597Z,28.73
2022-12-03T16:11:25.487Z,25.35
2022-12-03T16:13:54.599Z,27.95
2022-12-03T16:16:22.554Z,25.48
2022-12-03T16:18:50.612Z,25.95
2022-12-03T16:21:22.003Z,32.25
2022-12-03T16:23:54.198Z,28.73
2022-12-03T16:26:22.168Z,33.97
2022-12-03T16:28:49.986Z,26.70
2022-12-03T16:31:19.929Z,30.77
2022-12-03T16:33:47.927Z,29.25
2022-12-03T16:36:15.920Z,27.83
2022-12-03T16:38:43.746Z,28.52
2022-12-03T16:41:11.534Z,28.45
2022-12-03T16:43:39.476Z,31.40
2022-12-03T16:46:26.197Z,33.38
2022-12-03T16:48:57.914Z,29.25
2022-12-03T16:51:26.771Z,29.48
2022-12-03T16:54:03.597Z,32.88
2022-12-03T16:56:31.407Z,32.63
2022-12-03T16:58:59.325Z,32.33
2022-12-03T17:01:27.207Z,28.88
2022-12-03T17:03:56.456Z,32.13
2022-12-03T17:06:24.363Z,26.70
2022-12-03T17:08:52.194Z,30.90
2022-12-03T17:11:19.948Z,31.42
2022-12-03T17:13:47.825Z,33.38
2022-12-03T17:16:15.812Z,30.88
2022-12-03T17:18:43.750Z,30.55
2022-12-03T17:21:12.949Z,35.80
2022-12-03T17:23:40.739Z,40.42
2022-12-03T17:26:08.524Z,34.08
2022-12-03T17:28:36.604Z,33.83
2022-12-03T17:31:04.461Z,32.67
2022-12-03T17:33:32.310Z,34.10
2022-12-03T17:36:00.122Z,34.83
2022-12-03T17:38:34.006Z,36.75
2022-12-03T17:41:05.311Z,33.25
2022-12-03T17:43:33.133Z,35.28
2022-12-03T17:46:01.228Z,40.33
2022-12-03T17:48:31.077Z,33.00
2022-12-03T17:50:59.057Z,35.63
2022-12-03T17:53:26.890Z,36.95
2022-12-03T17:55:56.064Z,38.40
2022-12-03T17:58:23.827Z,38.05
2022-12-03T18:00:51.519Z,35.35
2022-12-03T18:03:19.323Z,36.22
2022-12-03T18:05:47.103Z,37.03
2022-12-03T18:08:15.009Z,38.80
2022-12-03T18:10:42.867Z,33.38
2022-12-03T18:13:12.060Z,36.10
2022-12-03T18:15:39.911Z,37.67
2022-12-03T18:18:07.812Z,40.47
2022-12-03T18:20:35.561Z,42.72
2022-12-03T18:23:03.354Z,36.70
2022-12-03T18:25:31.511Z,33.28
2022-12-03T18:27:59.357Z,36.70
2022-12-03T18:30:28.448Z,40.33
2022-12-03T18:32:56.318Z,34.13
2022-12-03T18:35:24.405Z,31.58
2022-12-03T18:37:52.691Z,38.65
2022-12-03T18:40:23.598Z,33.45
2022-12-03T18:42:51.589Z,36.00
2022-12-03T18:45:19.945Z,39.80
2022-12-03T18:47:49.147Z,35.20
2022-12-03T18:50:17.314Z,39.47
2022-12-03T18:52:45.230Z,37.55
2022-12-03T18:55:17.686Z,40.83
2022-12-03T18:57:45.603Z,36.55
2022-12-03T19:00:14.856Z,35.13
2022-12-03T19:05:32.484Z,33.88
2022-12-03T19:08:00.434Z,36.63
2022-12-03T19:10:28.682Z,37.85
2022-12-03T19:12:56.500Z,37.78
2022-12-03T19:15:24.299Z,35.90
2022-12-03T19:17:52.510Z,38.55
2022-12-03T19:20:20.577Z,37.70
2022-12-03T19:22:49.701Z,42.38
2022-12-03T19:25:17.559Z,38.50
2022-12-03T19:27:45.400Z,34.72
2022-12-03T19:30:13.881Z,37.00
2022-12-03T19:32:41.671Z,42.10
2022-12-03T19:35:11.267Z,36.53
2022-12-03T19:37:39.460Z,38.00
2022-12-03T19:40:11.278Z,35.63
2022-12-03T19:42:39.608Z,35.13
2022-12-03T19:45:08.431Z,38.72
2022-12-03T19:47:36.329Z,34.95
2022-12-03T19:50:04.368Z,36.17
2022-12-03T19:52:32.165Z,39.08
2022-12-03T19:55:01.034Z,35.95
2022-12-03T19:57:30.207Z,37.55
2022-12-03T19:59:58.446Z,44.08
2022-12-03T20:02:26.379Z,38.53
2022-12-03T20:04:54.307Z,36.28
2022-12-03T20:07:22.097Z,33.60
2022-12-03T20:09:51.226Z,36.55
2022-12-03T20:12:19.008Z,39.50
2022-12-03T20:14:49.839Z,37.42
2022-12-03T20:17:17.800Z,38.22
2022-12-03T20:19:45.714Z,34.53
2022-12-03T20:22:13.578Z,36.58
2022-12-03T20:24:41.529Z,39.30
2022-12-03T20:27:09.504Z,38.83
2022-12-03T20:29:40.218Z,37.47
2022-12-03T20:32:09.558Z,40.50
2022-12-03T20:37:05.103Z,35.00
2022-12-03T20:39:33.080Z,33.58
2022-12-03T20:42:00.856Z,35.25
2022-12-03T20:44:28.711Z,37.85
2022-12-03T20:46:56.578Z,34.30
2022-12-03T20:49:25.799Z,33.95
2022-12-03T20:51:53.615Z,39.38
2022-12-03T20:54:21.455Z,34.85
2022-12-03T20:56:49.520Z,37.10
2022-12-03T20:59:18.617Z,34.72
2022-12-03T21:01:46.650Z,35.95
2022-12-03T21:04:16.036Z,33.25
2022-12-03T21:09:14.208Z,36.35
2022-12-03T21:11:42.570Z,32.08
2022-12-03T21:14:12.410Z,35.33
2022-12-03T21:19:30.682Z,40.03
2022-12-03T21:21:59.985Z,46.28
2022-12-03T21:26:55.585Z,40.03
2022-12-03T21:29:25.067Z,35.80
2022-12-03T21:31:53.142Z,34.25
2022-12-03T21:34:21.225Z,39.08
2022-12-03T21:36:49.111Z,36.80
2022-12-03T21:39:18.733Z,36.67
2022-12-03T21:42:19.370Z,35.95
2022-12-03T21:44:35.064Z,44.10
2022-12-03T21:47:09.671Z,38.33
2022-12-03T21:49:41.857Z,40.85
2022-12-03T21:52:10.709Z,35.53
2022-12-03T21:54:40.001Z,40.25
2022-12-03T21:59:35.546Z,40.80
2022-12-03T22:02:03.752Z,36.78
2022-12-03T22:04:31.737Z,36.63
2022-12-03T22:06:59.520Z,33.65
2022-12-03T22:09:27.384Z,34.60
2022-12-03T22:11:59.198Z,41.33
2022-12-03T22:14:27.333Z,34.97
2022-12-03T22:16:55.231Z,34.97
2022-12-03T22:19:24.121Z,37.60
2022-12-03T22:21:51.946Z,36.20
2022-12-03T22:24:20.224Z,35.40
2022-12-03T22:26:48.479Z,37.08
2022-12-03T22:29:17.682Z,37.97
2022-12-03T22:31:45.476Z,35.05
2022-12-03T22:34:13.778Z,38.47
2022-12-03T22:36:41.650Z,38.60
2022-12-03T22:39:09.563Z,40.60
2022-12-03T22:41:37.402Z,41.03
2022-12-03T22:44:05.369Z,35.47
2022-12-03T22:46:34.646Z,38.22
2022-12-03T22:51:36.132Z,34.03
2022-12-03T22:54:04.249Z,37.13
2022-12-03T22:56:32.507Z,32.75
2022-12-03T22:59:00.496Z,37.45
2022-12-03T23:01:30.391Z,38.45
2022-12-03T23:04:00.161Z,38.67
2022-12-03T23:06:29.326Z,32.10
2022-12-03T23:08:58.017Z,34.03
2022-12-03T23:11:26.777Z,36.13
2022-12-03T23:13:55.033Z,36.45
2022-12-03T23:16:24.914Z,41.05
2022-12-03T23:18:52.935Z,29.98
2022-12-03T23:21:29.521Z,32.83
2022-12-03T23:23:57.974Z,28.40
2022-12-03T23:26:26.399Z,36.40
2022-12-03T23:28:54.182Z,29.47
2022-12-03T23:31:24.563Z,29.98
2022-12-03T23:33:53.281Z,32.17
2022-12-03T23:36:24.150Z,32.45
2022-12-03T23:38:51.972Z,28.35
2022-12-03T23:41:22.381Z,34.83
2022-12-03T23:43:50.560Z,36.65
2022-12-03T23:46:20.513Z,31.45
2022-12-03T23:48:48.555Z,31.15
2022-12-03T23:51:18.126Z,27.77
2022-12-03T23:53:47.508Z,29.25
2022-12-03T23:58:44.130Z,33.00
